Stockton, Kansas
Current Conditions -  °F | °C
As of 2:53 PM on Saturday 22 Nov 2014 (Local Time) from KHLC Reporting Station
Clear Clear  
Wind Chill: 66°   Ceiling: Unl
Heat Index: 66°   Visibility: 10mi
Dew Point: 32°   Wind: 13mph
Humidity: 28%   Direction: 200°SSW
Pressure: 29.62"   Gusts: NA
Location:  39.44°N, 99.27°W
Report Text: KHLC 222053Z AUTO 20011KT 10SM CLR 19/00 A2962 RMK AO2 SLP031 T01890000 56042
Loading
Personal Weather Stations






























Interactive Weather Map New forecast layout! Learn more

10-Day Weather Forecast

Advertisements
Track Severe Weather on mobile